Аэропорт: Мурманск. Мурманск

ICAO: ULMM

METAR:
2018/11/19 10:00
ULMM 191000Z 27003MPS CAVOK M01/M07 Q1026 R31/110065 NOSIG RMK QFE762
METAR:
2018/11/19 09:27
TAF TAF ULMM 190750Z 1909/2009 27003G08MPS 9999 BKN020 
      TEMPO 1909/1921 29005G10MPS -SHSNRA BKN020CB 
      BECMG 1921/1923 30003G08MPS BKN011 
      TEMPO 1923/2009 33005G10MPS 3100 -SHSN BKN011CB